CheckWX is a tool to help pilots better visualize weather data.  It is not intended as a substitute for an official pre-flight weather briefing.

14:14:30 UTC

CYAW METAR
Shearwater Airport
Shearwater, Canada
Current

22 hours ago

CYAW 211600Z 19011KT 5SM BR FEW002 BKN006 OVC010 11/11 A3030 RMK SF2SF6SF1 DA-511FT LAST OBS/NEXT 230900 UTC SLP261
Observed
Apr-21 @ 16:00 UTC
Wind
  • 190° at 11 KTS
Visibility
5 SM
Flight Rules
IFR
Conditions
Mist
Cloud Levels
  • Few at 200' AGL
  • Broken at 600' AGL
  • Overcast at 1,000' AGL
Temperature
11°C / 52°F
Dewpoint
11°C / 52°F
Humidity
100%
Altimeter
30.3" Hg
Pressure
1026.12 hPa
Previous

23 hours ago

CYAW 211530Z 19014G19KT 5SM BR SCT002 OVC005 11/11 A3030 RMK SF4ST4 DA-525FT VIS LWR S QUAD SLP261
Observed
Apr-21 @ 15:30 UTC
Wind
  • 190° at 14 KTS
  • Gusting to 19 KTS
Visibility
5 SM
Flight Rules
IFR
Conditions
Mist
Cloud Levels
  • Scattered at 200' AGL
  • Overcast at 500' AGL
Temperature
11°C / 52°F
Dewpoint
11°C / 52°F
Humidity
100%
Altimeter
30.3" Hg
Pressure
1026.12 hPa
Previous

23 hours ago

CYAW 211514Z 18011G17KT 2SM BR OVC003 11/11 A3030 RMK ST8 DA-524FT SLP260
Observed
Apr-21 @ 15:14 UTC
Wind
  • 180° at 11 KTS
  • Gusting to 17 KTS
Visibility
2 SM
Flight Rules
LIFR
Conditions
Mist
Cloud Levels
  • Overcast at 300' AGL
Temperature
11°C / 52°F
Dewpoint
11°C / 52°F
Humidity
100%
Altimeter
30.3" Hg
Pressure
1026.12 hPa